Belsize Park, United Kingdom
Current Conditions -  °F | °C
As of 3:20 AM on Sunday 23 Nov 2014 (Local Time) from EGLC Reporting Station
Heavy Rain Heavy Rain  
Wind Chill: 54°   Ceiling: 900
Heat Index: 54°   Visibility: 4mi
Dew Point: 52°   Wind: 5mph
Humidity: 94%   Direction: 350°N
Pressure: 29.94"   Gusts: NA
Location:  51.55°N, 0.17°W
Report Text: EGLC 230320Z AUTO 35004KT 320V020 6000 +RA FEW006/// SCT008/// BKN009/// 12/11 Q1014
Loading
Personal Weather Stations






























Interactive Weather Map New forecast layout! Learn more

10-Day Weather Forecast

Advertisements
Track Severe Weather on mobile